createdAt,value
2022-11-27T00:01:40.818Z,1.69
2022-11-27T00:04:37.976Z,1.67
2022-11-27T00:07:25.717Z,1.67
2022-11-27T00:10:14.241Z,1.67
2022-11-27T00:13:14.049Z,1.66
2022-11-27T00:16:08.071Z,1.58
2022-11-27T00:18:55.908Z,1.58
2022-11-27T00:22:05.938Z,1.62
2022-11-27T00:24:53.835Z,1.62
2022-11-27T00:27:53.205Z,1.57
2022-11-27T00:31:11.278Z,1.56
2022-11-27T00:37:08.286Z,1.59
2022-11-27T00:40:02.873Z,1.61
2022-11-27T00:43:13.746Z,1.61
2022-11-27T00:46:28.058Z,1.68
2022-11-27T00:52:25.707Z,1.67
2022-11-27T00:55:19.110Z,1.63
2022-11-27T00:58:07.095Z,1.58
2022-11-27T01:00:59.854Z,1.50
2022-11-27T01:03:49.884Z,1.56
2022-11-27T01:06:39.074Z,1.62
2022-11-27T01:10:26.287Z,1.62
2022-11-27T01:12:51.776Z,1.68
2022-11-27T01:15:42.743Z,1.70
2022-11-27T01:18:40.049Z,1.74
2022-11-27T01:21:38.442Z,1.73
2022-11-27T01:24:36.272Z,1.72
2022-11-27T01:27:27.157Z,1.72
2022-11-27T01:30:28.965Z,1.77
2022-11-27T01:33:51.832Z,1.71
2022-11-27T01:36:43.563Z,1.72
2022-11-27T01:39:33.092Z,1.72
2022-11-27T01:42:23.475Z,1.76
2022-11-27T01:45:22.937Z,1.76
2022-11-27T01:48:13.621Z,1.80
2022-11-27T01:51:09.545Z,1.84
2022-11-27T01:54:04.248Z,1.89
2022-11-27T01:56:57.993Z,1.92
2022-11-27T01:59:46.497Z,1.94
2022-11-27T02:02:34.528Z,1.96
2022-11-27T02:05:25.947Z,1.97
2022-11-27T02:08:16.401Z,1.97
2022-11-27T02:11:13.995Z,1.99
2022-11-27T02:14:11.444Z,1.99
2022-11-27T02:17:06.539Z,2.01
2022-11-27T02:20:18.996Z,2.04
2022-11-27T02:23:28.249Z,2.07
2022-11-27T02:26:41.868Z,2.08
2022-11-27T02:29:34.377Z,2.07
2022-11-27T02:32:28.256Z,2.01
2022-11-27T02:35:20.879Z,2.05
2022-11-27T02:38:15.796Z,1.98
2022-11-27T02:41:11.555Z,1.86
2022-11-27T02:44:01.773Z,1.90
2022-11-27T02:46:52.659Z,1.98
2022-11-27T02:49:43.107Z,2.02
2022-11-27T02:52:31.888Z,2.03
2022-11-27T02:55:27.381Z,1.94
2022-11-27T02:58:22.733Z,1.80
2022-11-27T03:01:12.470Z,1.78
2022-11-27T03:04:04.940Z,1.88
2022-11-27T03:06:57.061Z,1.96
2022-11-27T03:09:48.940Z,2.00
2022-11-27T03:12:39.172Z,2.03
2022-11-27T03:15:29.717Z,2.07
2022-11-27T03:18:25.347Z,2.08
2022-11-27T03:21:28.597Z,2.09
2022-11-27T03:24:19.365Z,2.05
2022-11-27T03:27:07.599Z,2.07
2022-11-27T03:29:58.858Z,2.06
2022-11-27T03:32:48.861Z,2.06
2022-11-27T03:35:36.624Z,2.07
2022-11-27T03:38:26.361Z,2.00
2022-11-27T03:41:24.154Z,2.05
2022-11-27T03:44:24.240Z,2.01
2022-11-27T03:47:22.535Z,2.03
2022-11-27T03:50:22.951Z,2.00
2022-11-27T03:53:20.743Z,1.99
2022-11-27T03:56:18.307Z,2.01
2022-11-27T03:59:11.331Z,2.02
2022-11-27T04:01:59.530Z,2.02
2022-11-27T04:04:49.007Z,2.02
2022-11-27T04:07:36.745Z,2.01
2022-11-27T04:10:24.844Z,1.97
2022-11-27T04:13:14.248Z,1.79
2022-11-27T04:16:05.581Z,1.65
2022-11-27T04:18:53.569Z,1.73
2022-11-27T04:21:41.627Z,1.78
2022-11-27T04:24:31.936Z,1.79
2022-11-27T04:27:19.999Z,1.77
2022-11-27T04:30:10.069Z,1.76
2022-11-27T04:32:57.681Z,1.65
2022-11-27T04:35:45.703Z,1.58
2022-11-27T04:38:33.735Z,1.50
2022-11-27T04:41:21.667Z,1.43
2022-11-27T04:44:12.832Z,1.47
2022-11-27T04:47:01.770Z,1.46
2022-11-27T04:49:51.132Z,1.50
2022-11-27T04:52:39.182Z,1.54
2022-11-27T04:55:31.512Z,1.38
2022-11-27T04:58:19.320Z,1.41
2022-11-27T05:01:09.015Z,1.21
2022-11-27T05:03:58.735Z,1.25
2022-11-27T05:06:48.707Z,1.32
2022-11-27T05:09:36.790Z,1.22
2022-11-27T05:12:24.462Z,1.02
2022-11-27T05:15:12.545Z,0.94
2022-11-27T05:18:00.425Z,0.95
2022-11-27T05:20:56.632Z,0.68
2022-11-27T05:23:45.996Z,0.83
2022-11-27T05:26:35.959Z,0.75
2022-11-27T05:29:25.124Z,0.81
2022-11-27T05:32:12.916Z,0.77
2022-11-27T05:35:05.831Z,0.83
2022-11-27T05:37:55.089Z,0.76
2022-11-27T05:40:42.763Z,0.69
2022-11-27T05:43:30.833Z,0.73
2022-11-27T05:46:21.167Z,0.70
2022-11-27T05:49:09.729Z,0.66
2022-11-27T05:51:59.029Z,0.49
2022-11-27T05:55:01.009Z,0.42
2022-11-27T05:57:51.243Z,0.44
2022-11-27T06:00:43.825Z,0.51
2022-11-27T06:03:33.495Z,0.63
2022-11-27T06:06:22.222Z,0.64
2022-11-27T06:09:13.277Z,0.48
2022-11-27T06:12:02.775Z,0.51
2022-11-27T06:14:50.469Z,0.47
2022-11-27T06:17:41.733Z,0.54
2022-11-27T06:20:29.715Z,0.47
2022-11-27T06:23:17.725Z,0.48
2022-11-27T06:26:16.836Z,0.50
2022-11-27T06:29:11.555Z,0.51
2022-11-27T06:31:59.332Z,0.59
2022-11-27T06:34:47.300Z,0.64
2022-11-27T06:37:35.346Z,0.65
2022-11-27T06:40:23.582Z,0.54
2022-11-27T06:43:12.504Z,0.49
2022-11-27T06:46:03.266Z,0.43
2022-11-27T06:48:53.584Z,0.52
2022-11-27T06:51:41.408Z,0.62
2022-11-27T06:54:29.543Z,0.66
2022-11-27T06:57:17.465Z,0.47
2022-11-27T07:00:06.808Z,0.41
2022-11-27T07:02:59.812Z,0.31
2022-11-27T07:05:55.089Z,0.12
2022-11-27T07:08:45.710Z,0.18
2022-11-27T07:11:49.200Z,0.17
2022-11-27T07:14:40.080Z,0.35
2022-11-27T07:17:28.604Z,0.40
2022-11-27T07:20:19.847Z,0.49
2022-11-27T07:23:11.703Z,0.41
2022-11-27T07:26:05.894Z,0.41
2022-11-27T07:28:54.772Z,0.41
2022-11-27T07:31:42.667Z,0.44
2022-11-27T07:34:30.354Z,0.49
2022-11-27T07:37:19.787Z,0.53
2022-11-27T07:40:15.066Z,0.46
2022-11-27T07:43:07.238Z,0.55
2022-11-27T07:45:59.300Z,0.59
2022-11-27T07:48:54.158Z,0.56
2022-11-27T07:52:03.496Z,0.64
2022-11-27T07:54:52.508Z,0.68
2022-11-27T07:57:42.837Z,0.77
2022-11-27T08:00:35.793Z,0.81
2022-11-27T08:03:24.091Z,0.87
2022-11-27T08:06:18.776Z,0.91
2022-11-27T08:09:06.440Z,0.99
2022-11-27T08:11:55.791Z,1.08
2022-11-27T08:15:15.451Z,1.14
2022-11-27T08:18:05.946Z,1.19
2022-11-27T08:21:00.973Z,1.23
2022-11-27T08:23:53.536Z,1.24
2022-11-27T08:26:41.410Z,1.31
2022-11-27T08:29:34.055Z,1.37
2022-11-27T08:32:22.307Z,1.43
2022-11-27T08:35:13.766Z,1.46
2022-11-27T08:38:06.036Z,1.52
2022-11-27T08:41:07.024Z,1.58
2022-11-27T08:44:05.594Z,1.62
2022-11-27T08:46:58.044Z,1.66
2022-11-27T08:49:57.089Z,1.73
2022-11-27T08:52:58.098Z,1.80
2022-11-27T08:55:47.583Z,1.83
2022-11-27T08:58:37.945Z,1.91
2022-11-27T09:01:34.896Z,1.98
2022-11-27T09:04:30.397Z,2.01
2022-11-27T09:07:22.735Z,2.05
2022-11-27T09:10:12.871Z,2.06
2022-11-27T09:13:03.926Z,2.06
2022-11-27T09:16:00.849Z,2.10
2022-11-27T09:18:50.069Z,2.18
2022-11-27T09:21:42.474Z,2.22
2022-11-27T09:24:30.660Z,2.21
2022-11-27T09:27:18.410Z,2.27
2022-11-27T09:30:13.092Z,2.38
2022-11-27T09:33:04.168Z,2.44
2022-11-27T09:35:51.898Z,2.52
2022-11-27T09:38:42.412Z,2.47
2022-11-27T09:41:44.904Z,2.43
2022-11-27T09:44:43.426Z,2.50
2022-11-27T09:47:41.917Z,2.58
2022-11-27T09:50:38.262Z,2.52
2022-11-27T09:53:34.338Z,2.58
2022-11-27T09:56:29.170Z,2.58
2022-11-27T09:59:27.586Z,2.68
2022-11-27T10:02:40.228Z,2.65
2022-11-27T10:06:01.548Z,2.74
2022-11-27T10:09:00.371Z,2.75
2022-11-27T10:11:58.972Z,2.78
2022-11-27T10:15:04.068Z,2.82
2022-11-27T10:18:03.870Z,2.88
2022-11-27T10:21:02.280Z,2.83
2022-11-27T10:24:02.975Z,2.83
2022-11-27T10:26:58.694Z,2.98
2022-11-27T10:29:56.960Z,3.00
2022-11-27T10:32:55.092Z,3.02
2022-11-27T10:35:47.695Z,3.09
2022-11-27T10:38:48.990Z,3.23
2022-11-27T10:41:49.717Z,3.06
2022-11-27T10:44:43.699Z,3.04
2022-11-27T10:47:34.638Z,3.08
2022-11-27T10:50:22.706Z,3.08
2022-11-27T10:53:19.714Z,3.11
2022-11-27T10:56:43.741Z,3.10
2022-11-27T10:59:40.943Z,3.22
2022-11-27T11:02:34.070Z,3.29
2022-11-27T11:05:50.459Z,3.42
2022-11-27T11:08:41.451Z,3.29
2022-11-27T11:11:29.621Z,3.37
2022-11-27T11:14:20.355Z,3.48
2022-11-27T11:17:18.544Z,3.51
2022-11-27T11:20:16.733Z,3.45
2022-11-27T11:23:08.149Z,3.45
2022-11-27T11:25:59.826Z,3.54
2022-11-27T11:28:51.898Z,3.59
2022-11-27T11:31:42.178Z,3.73
2022-11-27T11:34:34.018Z,3.49
2022-11-27T11:37:25.606Z,3.56
2022-11-27T11:40:25.820Z,3.63
2022-11-27T11:43:26.443Z,3.68
2022-11-27T11:46:26.347Z,3.87
2022-11-27T11:49:24.162Z,3.85
2022-11-27T11:52:22.347Z,3.90
2022-11-27T11:55:20.304Z,3.91
2022-11-27T11:58:35.230Z,3.90
2022-11-27T12:01:46.977Z,3.89
2022-11-27T12:05:06.251Z,3.88
2022-11-27T12:08:17.977Z,3.93
2022-11-27T12:11:13.681Z,3.79
2022-11-27T12:14:14.396Z,3.84
2022-11-27T12:17:14.687Z,3.88
2022-11-27T12:20:19.475Z,3.88
2022-11-27T12:23:35.041Z,3.93
2022-11-27T12:26:33.619Z,4.01
2022-11-27T12:29:45.706Z,4.13
2022-11-27T12:32:53.032Z,4.06
2022-11-27T12:35:45.958Z,4.06
2022-11-27T12:39:09.890Z,4.01
2022-11-27T12:42:01.627Z,4.18
2022-11-27T12:44:57.800Z,4.11
2022-11-27T12:47:49.010Z,4.00
2022-11-27T12:50:42.418Z,4.04
2022-11-27T12:53:35.887Z,4.02
2022-11-27T12:56:31.947Z,4.04
2022-11-27T12:59:27.273Z,4.11
2022-11-27T13:02:28.728Z,4.09
2022-11-27T13:05:20.460Z,4.14
2022-11-27T13:08:14.954Z,4.26
2022-11-27T13:11:07.873Z,4.38
2022-11-27T13:14:01.614Z,4.44
2022-11-27T13:16:53.981Z,4.42
2022-11-27T13:19:47.159Z,4.45
2022-11-27T13:22:37.480Z,4.55
2022-11-27T13:25:27.058Z,4.28
2022-11-27T13:28:26.289Z,4.37
2022-11-27T13:31:23.575Z,4.17
2022-11-27T13:34:19.330Z,4.27
2022-11-27T13:37:23.852Z,4.34
2022-11-27T13:40:23.111Z,4.39
2022-11-27T13:43:24.006Z,4.26
2022-11-27T13:46:19.527Z,4.24
2022-11-27T13:49:08.056Z,4.29
2022-11-27T13:52:11.805Z,4.27
2022-11-27T13:55:00.239Z,4.25
2022-11-27T13:57:53.768Z,4.27
2022-11-27T14:00:43.285Z,4.34
2022-11-27T14:03:36.508Z,4.44
2022-11-27T14:06:27.185Z,4.46
2022-11-27T14:09:15.583Z,4.44
2022-11-27T14:12:14.941Z,4.41
2022-11-27T14:15:10.337Z,4.39
2022-11-27T14:18:09.451Z,4.43
2022-11-27T14:21:02.559Z,4.55
2022-11-27T14:23:51.438Z,4.34
2022-11-27T14:26:43.085Z,4.41
2022-11-27T14:29:31.810Z,4.38
2022-11-27T14:32:21.994Z,4.49
2022-11-27T14:35:22.019Z,4.33
2022-11-27T14:38:16.245Z,4.30
2022-11-27T14:41:12.762Z,4.22
2022-11-27T14:44:05.109Z,4.30
2022-11-27T14:46:54.062Z,4.21
2022-11-27T14:49:42.533Z,4.24
2022-11-27T14:52:30.786Z,4.28
2022-11-27T14:55:21.050Z,4.24
2022-11-27T14:58:15.822Z,4.13
2022-11-27T15:01:06.670Z,4.23
2022-11-27T15:03:59.322Z,4.23
2022-11-27T15:06:48.205Z,4.19
2022-11-27T15:09:37.096Z,4.16
2022-11-27T15:12:31.859Z,4.15
2022-11-27T15:15:23.543Z,4.16
2022-11-27T15:18:22.848Z,4.12
2022-11-27T15:21:19.361Z,4.02
2022-11-27T15:24:07.459Z,4.08
2022-11-27T15:26:55.530Z,4.01
2022-11-27T15:29:59.784Z,4.10
2022-11-27T15:32:52.277Z,4.05
2022-11-27T15:35:40.241Z,4.10
2022-11-27T15:38:28.411Z,4.08
2022-11-27T15:41:25.597Z,4.06
2022-11-27T15:44:13.393Z,3.99
2022-11-27T15:47:04.825Z,3.94
2022-11-27T15:49:52.546Z,3.97
2022-11-27T15:52:40.450Z,3.98
2022-11-27T15:55:28.402Z,3.93
2022-11-27T15:58:17.718Z,3.87
2022-11-27T16:01:07.247Z,3.89
2022-11-27T16:03:56.849Z,3.90
2022-11-27T16:06:44.591Z,4.02
2022-11-27T16:09:32.483Z,3.93
2022-11-27T16:12:20.405Z,3.87
2022-11-27T16:15:10.610Z,3.85
2022-11-27T16:17:58.376Z,3.88
2022-11-27T16:20:47.314Z,3.83
2022-11-27T16:23:35.949Z,3.78
2022-11-27T16:26:34.011Z,3.78
2022-11-27T16:29:22.106Z,3.80
2022-11-27T16:32:10.097Z,3.73
2022-11-27T16:34:58.149Z,3.75
2022-11-27T16:37:47.445Z,3.63
2022-11-27T16:40:35.443Z,3.65
2022-11-27T16:43:23.512Z,3.67
2022-11-27T16:46:13.148Z,3.61
2022-11-27T16:49:01.434Z,3.63
2022-11-27T16:51:49.346Z,3.58
2022-11-27T16:54:38.970Z,3.60
2022-11-27T16:57:26.975Z,3.63
2022-11-27T17:00:16.386Z,3.63
2022-11-27T17:03:04.556Z,3.59
2022-11-27T17:05:52.448Z,3.62
2022-11-27T17:08:41.200Z,3.63
2022-11-27T17:11:33.551Z,3.59
2022-11-27T17:14:21.250Z,3.60
2022-11-27T17:17:09.321Z,3.58
2022-11-27T17:20:00.337Z,3.63
2022-11-27T17:22:49.481Z,3.61
2022-11-27T17:25:37.295Z,3.64
2022-11-27T17:28:27.827Z,3.61
2022-11-27T17:31:19.053Z,3.64
2022-11-27T17:34:08.308Z,3.56
2022-11-27T17:36:57.567Z,3.52
2022-11-27T17:39:54.919Z,3.64
2022-11-27T17:42:47.322Z,3.55
2022-11-27T17:45:36.501Z,3.51
2022-11-27T17:48:25.061Z,3.52
2022-11-27T17:51:13.329Z,3.53
2022-11-27T17:54:01.898Z,3.44
2022-11-27T17:56:51.582Z,3.41
2022-11-27T17:59:40.309Z,3.41
2022-11-27T18:02:30.111Z,3.41
2022-11-27T18:05:18.036Z,3.40
2022-11-27T18:08:06.778Z,3.43
2022-11-27T18:11:07.672Z,3.40
2022-11-27T18:13:56.322Z,3.41
2022-11-27T18:16:44.028Z,3.43
2022-11-27T18:19:33.489Z,3.43
2022-11-27T18:22:21.201Z,3.39
2022-11-27T18:25:09.619Z,3.39
2022-11-27T18:27:57.982Z,3.38
2022-11-27T18:30:46.000Z,3.36
2022-11-27T18:33:34.158Z,3.40
2022-11-27T18:36:23.352Z,3.46
2022-11-27T18:39:11.226Z,3.45
2022-11-27T18:41:59.290Z,3.44
2022-11-27T18:44:47.576Z,3.41
2022-11-27T18:47:35.257Z,3.41
2022-11-27T18:50:29.338Z,3.41
2022-11-27T18:53:18.808Z,3.37
2022-11-27T18:56:09.057Z,3.42
2022-11-27T18:58:57.291Z,3.44
2022-11-27T19:01:45.336Z,3.44
2022-11-27T19:04:35.486Z,3.42
2022-11-27T19:07:25.189Z,3.38
2022-11-27T19:10:14.470Z,3.31
2022-11-27T19:13:02.481Z,3.32
2022-11-27T19:15:51.035Z,3.28
2022-11-27T19:19:05.045Z,3.27
2022-11-27T19:21:52.979Z,3.34
2022-11-27T19:24:40.896Z,3.33
2022-11-27T19:27:30.188Z,3.25
2022-11-27T19:30:18.531Z,3.24
2022-11-27T19:33:06.634Z,3.24
2022-11-27T19:35:59.592Z,3.24
2022-11-27T19:38:47.750Z,3.24
2022-11-27T19:41:37.709Z,3.28
2022-11-27T19:44:33.012Z,3.27
2022-11-27T19:47:20.555Z,3.30
2022-11-27T19:50:09.343Z,3.28
2022-11-27T19:52:58.602Z,3.27
2022-11-27T19:55:53.558Z,3.29
2022-11-27T19:58:41.670Z,3.32
2022-11-27T20:01:30.971Z,3.31
2022-11-27T20:04:19.547Z,3.33
2022-11-27T20:07:08.212Z,3.35
2022-11-27T20:09:56.281Z,3.36
2022-11-27T20:12:44.402Z,3.37
2022-11-27T20:15:33.085Z,3.37
2022-11-27T20:18:22.117Z,3.34
2022-11-27T20:21:12.089Z,3.35
2022-11-27T20:23:59.833Z,3.34
2022-11-27T20:26:47.962Z,3.36
2022-11-27T20:29:35.704Z,3.34
2022-11-27T20:32:23.455Z,3.35
2022-11-27T20:35:12.798Z,3.35
2022-11-27T20:38:00.466Z,3.35
2022-11-27T20:40:48.509Z,3.33
2022-11-27T20:43:36.996Z,3.37
2022-11-27T20:46:25.266Z,3.38
2022-11-27T20:49:13.270Z,3.38
2022-11-27T20:52:04.004Z,3.38
2022-11-27T20:54:52.012Z,3.35
2022-11-27T20:57:39.849Z,3.30
2022-11-27T21:00:27.942Z,3.33
2022-11-27T21:03:15.650Z,3.33
2022-11-27T21:06:03.774Z,3.35
2022-11-27T21:08:53.169Z,3.35
2022-11-27T21:11:41.478Z,3.30
2022-11-27T21:14:29.168Z,3.32
2022-11-27T21:17:17.235Z,3.29
2022-11-27T21:20:06.739Z,3.25
2022-11-27T21:22:55.065Z,3.21
2022-11-27T21:25:44.232Z,3.22
2022-11-27T21:28:33.267Z,3.24
2022-11-27T21:31:23.699Z,3.24
2022-11-27T21:34:12.941Z,3.25
2022-11-27T21:37:00.777Z,3.27
2022-11-27T21:39:48.897Z,3.25
2022-11-27T21:42:41.642Z,3.21
2022-11-27T21:45:57.787Z,3.25
2022-11-27T21:48:46.086Z,3.23
2022-11-27T21:51:34.047Z,3.23
2022-11-27T21:54:22.001Z,3.23
2022-11-27T21:57:09.991Z,3.24
2022-11-27T21:59:59.341Z,3.22
2022-11-27T22:02:47.499Z,3.20
2022-11-27T22:05:35.408Z,3.24
2022-11-27T22:08:23.358Z,3.23
2022-11-27T22:11:13.370Z,3.23
2022-11-27T22:14:03.497Z,3.22
2022-11-27T22:16:52.986Z,3.21
2022-11-27T22:19:42.421Z,3.21
2022-11-27T22:22:31.464Z,3.24
2022-11-27T22:25:19.170Z,3.22
2022-11-27T22:28:07.096Z,3.19
2022-11-27T22:30:54.902Z,3.20
2022-11-27T22:33:45.221Z,3.15
2022-11-27T22:36:34.472Z,3.10
2022-11-27T22:39:22.714Z,3.10
2022-11-27T22:42:11.577Z,3.05
2022-11-27T22:44:59.288Z,3.04
2022-11-27T22:47:47.655Z,3.04
2022-11-27T22:50:36.862Z,3.04
2022-11-27T22:53:24.558Z,3.05
2022-11-27T22:56:13.788Z,3.04
2022-11-27T22:59:30.617Z,3.04
2022-11-27T23:02:10.498Z,3.07
2022-11-27T23:04:58.432Z,3.06
2022-11-27T23:07:47.783Z,3.03
2022-11-27T23:10:35.410Z,3.06
2022-11-27T23:13:23.547Z,3.10
2022-11-27T23:16:12.468Z,3.05
2022-11-27T23:19:00.369Z,3.03
2022-11-27T23:21:48.313Z,2.97
2022-11-27T23:24:37.715Z,2.92
2022-11-27T23:27:25.556Z,2.96
2022-11-27T23:30:14.093Z,2.93
2022-11-27T23:33:02.002Z,2.98
2022-11-27T23:35:50.077Z,2.95
2022-11-27T23:38:41.030Z,2.90
2022-11-27T23:41:31.869Z,2.88
2022-11-27T23:44:20.291Z,2.87
2022-11-27T23:47:07.936Z,2.87
2022-11-27T23:49:55.947Z,2.89
2022-11-27T23:52:44.031Z,2.88
2022-11-27T23:55:33.738Z,2.84
2022-11-27T23:58:22.863Z,2.85
